Brooklyn, Michigan
Current Conditions -  °F | °C
As of 1:56 PM on Sunday 23 Nov 2014 (Local Time) from KJXN Reporting Station
Clear Clear  
Wind Chill: 52°   Ceiling: Unl
Heat Index: 52°   Visibility: 10mi
Dew Point: 44°   Wind: 12mph
Humidity: 74%   Direction: 150°SSE
Pressure: 29.73"   Gusts: NA
Location:  42.11°N, 84.25°W
Report Text: KJXN 231856Z 15010KT 10SM CLR 11/07 A2973 RMK AO2 SLP069 T01110067
Loading
Personal Weather Stations






























Interactive Weather Map New forecast layout! Learn more

10-Day Weather Forecast

Advertisements
Track Severe Weather on mobile